createdAt,value
2018-05-18T00:00:16.425Z,92.80
2018-05-18T00:02:44.685Z,92.70
2018-05-18T00:05:12.149Z,92.70
2018-05-18T00:07:40.384Z,92.50
2018-05-18T00:10:07.881Z,92.50
2018-05-18T00:12:35.444Z,92.40
2018-05-18T00:15:02.906Z,92.30
2018-05-18T00:17:30.371Z,92.20
2018-05-18T00:19:57.884Z,92.20
2018-05-18T00:22:25.369Z,92.00
2018-05-18T00:24:52.836Z,92.10
2018-05-18T00:27:20.380Z,92.20
2018-05-18T00:29:47.844Z,92.30
2018-05-18T00:32:15.314Z,92.40
2018-05-18T00:34:42.865Z,92.30
2018-05-18T00:37:10.331Z,92.20
2018-05-18T00:39:37.885Z,92.20
2018-05-18T00:42:05.501Z,92.60
2018-05-18T00:44:33.001Z,92.50
2018-05-18T00:47:00.476Z,92.30
2018-05-18T00:49:27.949Z,92.20
2018-05-18T00:51:56.192Z,92.60
2018-05-18T00:54:23.664Z,92.60
2018-05-18T00:56:51.133Z,92.40
2018-05-18T00:59:19.388Z,92.10
2018-05-18T01:01:46.941Z,92.10
2018-05-18T01:04:14.408Z,92.10
2018-05-18T01:06:41.967Z,92.10
2018-05-18T01:09:09.529Z,92.10
2018-05-18T01:11:37.002Z,92.00
2018-05-18T01:14:04.469Z,92.30
2018-05-18T01:16:32.705Z,92.20
2018-05-18T01:19:00.190Z,92.20
2018-05-18T01:21:27.745Z,92.10
2018-05-18T01:23:55.213Z,92.20
2018-05-18T01:26:22.758Z,92.30
2018-05-18T01:28:50.323Z,92.20
2018-05-18T01:31:17.877Z,92.30
2018-05-18T01:33:45.441Z,92.40
2018-05-18T01:36:12.908Z,92.60
2018-05-18T01:38:40.370Z,92.60
2018-05-18T01:41:07.913Z,92.60
2018-05-18T01:43:35.380Z,93.10
2018-05-18T01:46:02.849Z,92.80
2018-05-18T01:48:31.081Z,92.90
2018-05-18T01:50:58.565Z,92.70
2018-05-18T01:53:26.029Z,92.80
2018-05-18T01:55:53.501Z,92.90
2018-05-18T01:58:21.735Z,93.40
2018-05-18T02:00:49.217Z,93.10
2018-05-18T02:03:16.735Z,93.00
2018-05-18T02:05:44.189Z,93.10
2018-05-18T02:08:11.697Z,93.20
2018-05-18T02:10:39.160Z,93.10
2018-05-18T02:13:06.712Z,93.10
2018-05-18T02:15:34.180Z,93.10
2018-05-18T02:18:01.734Z,93.10
2018-05-18T02:20:29.290Z,92.90
2018-05-18T02:22:56.849Z,93.00
2018-05-18T02:25:24.325Z,93.00
2018-05-18T02:27:51.789Z,93.10
2018-05-18T02:30:20.023Z,93.00
2018-05-18T02:32:47.560Z,93.00
2018-05-18T02:35:15.025Z,92.80
2018-05-18T02:37:42.484Z,92.90
2018-05-18T02:40:09.969Z,93.00
2018-05-18T02:42:37.537Z,93.10
2018-05-18T02:45:05.009Z,93.10
2018-05-18T02:47:32.561Z,93.20
2018-05-18T02:50:00.036Z,93.20
2018-05-18T02:52:27.609Z,93.20
2018-05-18T02:54:55.754Z,93.10
2018-05-18T02:57:23.222Z,93.10
2018-05-18T02:59:50.691Z,92.90
2018-05-18T03:02:18.940Z,92.70
2018-05-18T03:04:46.501Z,92.70
2018-05-18T03:07:13.984Z,92.60
2018-05-18T03:09:42.245Z,92.50
2018-05-18T03:12:10.517Z,92.60
2018-05-18T03:14:38.081Z,92.60
2018-05-18T03:17:05.549Z,92.70
2018-05-18T03:19:33.008Z,92.70
2018-05-18T03:22:01.248Z,92.60
2018-05-18T03:24:28.724Z,92.60
2018-05-18T03:26:56.206Z,92.70
2018-05-18T03:29:23.664Z,92.90
2018-05-18T03:31:51.921Z,92.70
2018-05-18T03:34:19.389Z,92.70
2018-05-18T03:36:46.941Z,92.80
2018-05-18T03:39:14.416Z,92.80
2018-05-18T03:41:42.643Z,92.50
2018-05-18T03:44:10.131Z,92.50
2018-05-18T03:46:37.596Z,92.90
2018-05-18T03:49:05.056Z,92.40
2018-05-18T03:51:32.534Z,92.50
2018-05-18T03:54:00.766Z,92.60
2018-05-18T03:56:28.350Z,92.60
2018-05-18T03:58:55.812Z,92.50
2018-05-18T04:01:35.250Z,92.60
2018-05-18T04:04:14.677Z,92.40
2018-05-18T04:06:54.116Z,92.30
2018-05-18T04:09:22.401Z,92.30
2018-05-18T04:11:49.956Z,92.30
2018-05-18T04:14:17.475Z,92.50
2018-05-18T04:16:45.965Z,92.60
2018-05-18T04:19:13.476Z,92.60
2018-05-18T04:21:41.712Z,92.40
2018-05-18T04:24:09.189Z,92.40
2018-05-18T04:26:36.654Z,92.80
2018-05-18T04:29:04.117Z,92.50
2018-05-18T04:31:31.585Z,92.50
2018-05-18T04:33:59.821Z,92.50
2018-05-18T04:36:27.297Z,92.50
2018-05-18T04:38:54.765Z,92.40
2018-05-18T04:41:22.320Z,92.30
2018-05-18T04:43:49.844Z,92.20
2018-05-18T04:46:17.256Z,92.10
2018-05-18T04:48:45.501Z,92.30
2018-05-18T04:51:13.069Z,92.30
2018-05-18T04:53:40.532Z,92.00
2018-05-18T04:56:07.995Z,92.10
2018-05-18T04:58:35.458Z,92.00
2018-05-18T05:01:03.004Z,92.00
2018-05-18T05:03:30.469Z,91.80
2018-05-18T05:05:58.021Z,92.00
2018-05-18T05:08:25.601Z,92.00
2018-05-18T05:10:53.057Z,91.90
2018-05-18T05:13:20.596Z,92.10
2018-05-18T05:15:48.060Z,92.30
2018-05-18T05:18:16.396Z,91.40
2018-05-18T05:20:43.897Z,91.40
2018-05-18T05:23:11.516Z,91.70
2018-05-18T05:25:38.972Z,91.70
2018-05-18T05:28:06.445Z,91.60
2018-05-18T05:30:33.919Z,91.20
2018-05-18T05:33:01.373Z,91.10
2018-05-18T05:35:28.849Z,90.60
2018-05-18T05:37:56.409Z,90.70
2018-05-18T05:40:23.968Z,90.20
2018-05-18T05:42:51.454Z,89.90
2018-05-18T05:45:19.680Z,90.00
2018-05-18T05:47:47.222Z,89.90
2018-05-18T05:50:14.684Z,89.10
2018-05-18T05:52:42.241Z,88.20
2018-05-18T05:55:09.693Z,88.90
2018-05-18T05:57:37.258Z,88.10
2018-05-18T06:00:04.766Z,87.30
2018-05-18T06:02:32.277Z,86.90
2018-05-18T06:04:59.780Z,86.40
2018-05-18T06:07:27.267Z,85.40
2018-05-18T06:09:55.512Z,84.50
2018-05-18T06:12:22.991Z,84.50
2018-05-18T06:14:50.441Z,84.90
2018-05-18T06:17:17.989Z,84.00
2018-05-18T06:19:45.475Z,83.40
2018-05-18T06:22:13.713Z,83.30
2018-05-18T06:24:41.284Z,83.30
2018-05-18T06:27:08.760Z,83.60
2018-05-18T06:32:09.853Z,83.50
2018-05-18T06:34:37.344Z,83.30
2018-05-18T06:37:04.785Z,83.90
2018-05-18T06:39:32.285Z,83.00
2018-05-18T06:41:59.749Z,83.60
2018-05-18T06:44:27.212Z,83.10
2018-05-18T06:46:54.844Z,82.60
2018-05-18T06:49:22.221Z,82.40
2018-05-18T06:51:49.689Z,82.80
2018-05-18T06:54:17.228Z,80.90
2018-05-18T06:56:44.793Z,81.00
2018-05-18T06:59:12.345Z,80.20
2018-05-18T07:01:39.913Z,79.70
2018-05-18T07:04:07.578Z,78.50
2018-05-18T07:06:34.992Z,78.70
2018-05-18T07:09:02.461Z,78.60
2018-05-18T07:11:29.944Z,78.80
2018-05-18T07:13:57.414Z,78.60
2018-05-18T07:16:24.983Z,75.90
2018-05-18T07:18:52.584Z,74.50
2018-05-18T07:21:20.048Z,75.00
2018-05-18T07:23:47.604Z,74.50
2018-05-18T07:26:15.164Z,74.90
2018-05-18T07:28:42.665Z,75.90
2018-05-18T07:31:10.241Z,72.70
2018-05-18T07:33:37.784Z,73.40
2018-05-18T07:36:05.285Z,73.50
2018-05-18T07:38:32.728Z,72.90
2018-05-18T07:41:00.960Z,73.50
2018-05-18T07:43:28.440Z,73.50
2018-05-18T07:45:55.907Z,74.30
2018-05-18T07:48:23.373Z,74.10
2018-05-18T07:50:51.608Z,71.20
2018-05-18T07:53:19.072Z,71.10
2018-05-18T07:55:46.533Z,70.70
2018-05-18T07:58:14.001Z,70.80
2018-05-18T08:00:41.469Z,72.30
2018-05-18T08:03:08.933Z,72.30
2018-05-18T08:05:36.480Z,70.70
2018-05-18T08:08:04.041Z,70.90
2018-05-18T08:10:31.512Z,68.40
2018-05-18T08:12:59.084Z,67.90
2018-05-18T08:15:27.312Z,67.60
2018-05-18T08:17:54.781Z,67.50
2018-05-18T08:20:23.049Z,65.80
2018-05-18T08:22:50.544Z,66.10
2018-05-18T08:25:18.094Z,66.40
2018-05-18T08:27:45.580Z,66.90
2018-05-18T08:30:13.828Z,69.10
2018-05-18T08:32:41.316Z,68.90
2018-05-18T08:35:09.565Z,66.30
2018-05-18T08:37:37.029Z,66.30
2018-05-18T08:40:04.538Z,64.50
2018-05-18T08:42:32.000Z,65.00
2018-05-18T08:44:59.497Z,64.80
2018-05-18T08:47:27.068Z,66.70
2018-05-18T08:49:54.616Z,67.20
2018-05-18T08:52:22.178Z,64.80
2018-05-18T08:54:49.736Z,65.00
2018-05-18T08:57:17.298Z,65.30
2018-05-18T08:59:44.864Z,63.90
2018-05-18T09:02:12.477Z,63.60
2018-05-18T09:04:39.982Z,63.00
2018-05-18T09:07:07.598Z,60.80
2018-05-18T09:09:35.114Z,61.20
2018-05-18T09:12:02.584Z,59.30
2018-05-18T09:14:30.813Z,61.10
2018-05-18T09:16:58.281Z,61.00
2018-05-18T09:19:25.852Z,61.40
2018-05-18T09:21:53.329Z,61.90
2018-05-18T09:24:20.794Z,60.70
2018-05-18T09:26:49.033Z,61.90
2018-05-18T09:29:16.605Z,61.90
2018-05-18T09:31:44.165Z,60.30
2018-05-18T09:34:11.778Z,60.70
2018-05-18T09:36:39.281Z,59.00
2018-05-18T09:39:06.755Z,59.90
2018-05-18T09:41:34.221Z,56.00
2018-05-18T09:44:01.687Z,57.60
2018-05-18T09:46:29.917Z,57.00
2018-05-18T09:48:57.376Z,57.00
2018-05-18T09:51:24.854Z,57.70
2018-05-18T09:53:52.474Z,57.60
2018-05-18T09:56:19.969Z,59.00
2018-05-18T09:58:47.492Z,59.30
2018-05-18T10:01:14.953Z,61.00
2018-05-18T10:03:42.421Z,61.40
2018-05-18T10:06:09.893Z,63.10
2018-05-18T10:08:37.361Z,62.70
2018-05-18T10:11:04.930Z,62.10
2018-05-18T10:13:32.442Z,59.60
2018-05-18T10:15:59.905Z,59.70
2018-05-18T10:18:27.372Z,58.60
2018-05-18T10:20:54.844Z,57.70
2018-05-18T10:23:22.316Z,56.00
2018-05-18T10:25:49.785Z,55.50
2018-05-18T10:28:17.338Z,54.00
2018-05-18T10:30:44.892Z,53.00
2018-05-18T10:33:12.362Z,51.60
2018-05-18T10:35:39.919Z,52.60
2018-05-18T10:38:07.433Z,53.30
2018-05-18T10:40:34.944Z,52.00
2018-05-18T10:43:02.553Z,52.90
2018-05-18T10:45:30.019Z,52.20
2018-05-18T10:47:57.513Z,50.70
2018-05-18T10:50:25.747Z,53.30
2018-05-18T10:52:53.213Z,53.40
2018-05-18T10:55:20.710Z,54.30
2018-05-18T10:57:48.937Z,54.60
2018-05-18T11:00:16.401Z,54.50
2018-05-18T11:02:44.589Z,53.00
2018-05-18T11:05:12.062Z,51.20
2018-05-18T11:07:39.520Z,50.90
2018-05-18T11:10:06.990Z,49.60
2018-05-18T11:12:34.449Z,50.70
2018-05-18T11:15:01.925Z,51.30
2018-05-18T11:17:29.386Z,52.10
2018-05-18T11:19:57.645Z,49.40
2018-05-18T11:22:25.205Z,49.40
2018-05-18T11:24:52.767Z,50.30
2018-05-18T11:27:20.228Z,49.50
2018-05-18T11:29:47.693Z,50.40
2018-05-18T11:32:15.941Z,50.40
2018-05-18T11:34:43.516Z,50.20
2018-05-18T11:37:11.083Z,51.00
2018-05-18T11:39:38.553Z,51.30
2018-05-18T11:42:06.811Z,51.10
2018-05-18T11:44:34.378Z,51.10
2018-05-18T11:47:01.929Z,52.30
2018-05-18T11:49:29.493Z,51.70
2018-05-18T11:51:56.961Z,51.30
2018-05-18T11:54:24.565Z,50.90
2018-05-18T11:56:52.077Z,50.20
2018-05-18T11:59:19.637Z,48.50
2018-05-18T12:01:47.103Z,48.20
2018-05-18T12:04:14.649Z,47.90
2018-05-18T12:06:42.213Z,47.80
2018-05-18T12:09:09.681Z,48.00
2018-05-18T12:11:37.144Z,48.30
2018-05-18T12:14:04.696Z,48.30
2018-05-18T12:16:32.861Z,49.50
2018-05-18T12:19:00.333Z,49.50
2018-05-18T12:21:27.885Z,49.70
2018-05-18T12:23:55.353Z,51.00
2018-05-18T12:26:22.812Z,51.50
2018-05-18T12:28:51.057Z,51.80
2018-05-18T12:31:18.523Z,51.80
2018-05-18T12:33:46.089Z,51.80
2018-05-18T12:36:13.660Z,52.30
2018-05-18T12:38:41.120Z,51.80
2018-05-18T12:41:08.590Z,51.50
2018-05-18T12:43:36.830Z,50.10
2018-05-18T12:46:04.408Z,50.00
2018-05-18T12:48:31.870Z,48.70
2018-05-18T12:50:59.341Z,46.80
2018-05-18T12:53:27.662Z,45.90
2018-05-18T12:55:55.152Z,45.70
2018-05-18T12:58:22.675Z,46.60
2018-05-18T13:00:50.133Z,46.90
2018-05-18T13:03:17.694Z,47.30
2018-05-18T13:05:45.156Z,47.20
2018-05-18T13:08:12.721Z,48.60
2018-05-18T13:10:40.213Z,49.60
2018-05-18T13:13:07.697Z,50.00
2018-05-18T13:15:35.933Z,50.20
2018-05-18T13:18:03.407Z,50.00
2018-05-18T13:20:30.964Z,49.30
2018-05-18T13:22:58.425Z,50.00
2018-05-18T13:25:25.888Z,50.00
2018-05-18T13:27:53.353Z,51.10
2018-05-18T13:30:20.817Z,50.70
2018-05-18T13:32:48.365Z,50.50
2018-05-18T13:35:15.839Z,47.90
2018-05-18T13:37:44.081Z,47.70
2018-05-18T13:40:11.554Z,47.60
2018-05-18T13:42:39.009Z,48.60
2018-05-18T13:45:06.566Z,48.60
2018-05-18T13:47:33.941Z,49.10
2018-05-18T13:50:01.480Z,49.90
2018-05-18T13:52:29.049Z,49.50
2018-05-18T13:54:56.605Z,49.70
2018-05-18T13:57:24.164Z,50.10
2018-05-18T13:59:51.628Z,50.40
2018-05-18T14:02:19.190Z,51.30
2018-05-18T14:04:46.749Z,50.70
2018-05-18T14:07:14.353Z,50.50
2018-05-18T14:09:41.809Z,50.00
2018-05-18T14:12:09.325Z,51.30
2018-05-18T14:14:36.792Z,51.50
2018-05-18T14:17:04.258Z,51.20
2018-05-18T14:19:31.718Z,51.60
2018-05-18T14:21:59.952Z,50.20
2018-05-18T14:24:27.412Z,50.20
2018-05-18T14:26:54.868Z,49.10
2018-05-18T14:29:22.343Z,48.50
2018-05-18T14:31:49.957Z,48.90
2018-05-18T14:34:17.389Z,48.40
2018-05-18T14:36:44.920Z,48.80
2018-05-18T14:39:12.496Z,49.10
2018-05-18T14:41:39.961Z,49.20
2018-05-18T14:44:07.428Z,48.40
2018-05-18T14:46:35.661Z,46.50
2018-05-18T14:49:03.121Z,46.50
2018-05-18T14:51:30.581Z,48.10
2018-05-18T14:53:58.049Z,48.30
2018-05-18T14:56:25.523Z,47.90
2018-05-18T14:58:53.083Z,47.70
2018-05-18T15:01:20.549Z,47.40
2018-05-18T15:03:48.780Z,47.00
2018-05-18T15:06:16.248Z,46.80
2018-05-18T15:08:43.729Z,47.30
2018-05-18T15:11:11.193Z,47.20
2018-05-18T15:13:38.746Z,46.30
2018-05-18T15:16:06.321Z,47.20
2018-05-18T15:18:33.798Z,47.40
2018-05-18T15:21:02.037Z,47.60
2018-05-18T15:23:30.309Z,48.40
2018-05-18T15:25:57.895Z,48.40
2018-05-18T15:28:25.469Z,47.90
2018-05-18T15:30:53.708Z,48.50
2018-05-18T15:33:21.183Z,48.50
2018-05-18T15:35:48.729Z,48.70
2018-05-18T15:38:16.290Z,49.40
2018-05-18T15:40:43.758Z,48.90
2018-05-18T15:43:12.855Z,48.50
2018-05-18T15:45:40.400Z,48.60
2018-05-18T15:48:07.974Z,48.00
2018-05-18T15:50:35.534Z,48.80
2018-05-18T15:53:03.103Z,49.20
2018-05-18T15:55:30.562Z,48.80
2018-05-18T15:57:58.025Z,49.40
2018-05-18T16:00:26.264Z,48.20
2018-05-18T16:02:53.716Z,48.30
2018-05-18T16:05:21.197Z,48.30
2018-05-18T16:07:48.677Z,48.40
2018-05-18T16:10:16.233Z,48.10
2018-05-18T16:12:44.485Z,47.30
2018-05-18T16:15:11.953Z,47.30
2018-05-18T16:17:39.423Z,47.50
2018-05-18T16:20:06.889Z,48.50
2018-05-18T16:22:35.159Z,47.60
2018-05-18T16:25:02.614Z,47.60
2018-05-18T16:27:30.077Z,47.00
2018-05-18T16:29:58.326Z,47.40
2018-05-18T16:32:25.781Z,47.30
2018-05-18T16:34:53.249Z,47.80
2018-05-18T16:37:20.708Z,48.10
2018-05-18T16:39:48.268Z,48.00
2018-05-18T16:42:15.788Z,49.20
2018-05-18T16:44:43.250Z,50.30
2018-05-18T16:47:10.712Z,49.60
2018-05-18T16:49:38.185Z,50.00
2018-05-18T16:52:05.648Z,49.40
2018-05-18T16:54:33.119Z,50.00
2018-05-18T16:57:00.685Z,49.90
2018-05-18T16:59:28.147Z,50.50
2018-05-18T17:01:55.608Z,51.10
2018-05-18T17:04:23.075Z,51.50
2018-05-18T17:06:51.333Z,52.50
2018-05-18T17:09:18.893Z,52.40
2018-05-18T17:11:46.350Z,52.60
2018-05-18T17:14:13.912Z,52.80
2018-05-18T17:16:41.403Z,53.20
2018-05-18T17:19:09.624Z,53.50
2018-05-18T17:21:37.101Z,53.50
2018-05-18T17:24:04.665Z,54.30
2018-05-18T17:26:32.228Z,55.10
2018-05-18T17:28:59.688Z,55.60
2018-05-18T17:31:27.249Z,56.60
2018-05-18T17:33:54.814Z,57.60
2018-05-18T17:36:22.381Z,58.80
2018-05-18T17:38:49.839Z,58.10
2018-05-18T17:41:17.657Z,56.80
2018-05-18T17:43:45.157Z,57.50
2018-05-18T17:46:12.617Z,57.50
2018-05-18T17:48:40.081Z,57.80
2018-05-18T17:51:08.329Z,58.10
2018-05-18T17:53:35.800Z,57.50
2018-05-18T17:56:03.353Z,57.70
2018-05-18T17:58:30.917Z,58.40
2018-05-18T18:00:58.473Z,59.00
2018-05-18T18:03:26.037Z,59.10
2018-05-18T18:05:53.603Z,59.50
2018-05-18T18:08:21.171Z,60.20
2018-05-18T18:10:48.629Z,59.90
2018-05-18T18:13:16.180Z,60.40
2018-05-18T18:15:43.638Z,61.20
2018-05-18T18:18:11.200Z,61.10
2018-05-18T18:20:38.653Z,61.70
2018-05-18T18:23:06.109Z,62.80
2018-05-18T18:25:33.580Z,63.00
2018-05-18T18:28:01.037Z,62.60
2018-05-18T18:30:28.514Z,63.30
2018-05-18T18:32:56.765Z,64.80
2018-05-18T18:35:24.331Z,64.80
2018-05-18T18:37:51.793Z,65.00
2018-05-18T18:40:20.057Z,65.80
2018-05-18T18:42:47.517Z,65.90
2018-05-18T18:45:14.975Z,66.10
2018-05-18T18:47:42.434Z,66.70
2018-05-18T18:50:09.901Z,66.90
2018-05-18T18:52:37.453Z,67.00
2018-05-18T18:55:04.913Z,67.90
2018-05-18T18:57:32.477Z,68.10
2018-05-18T19:00:00.067Z,69.30
2018-05-18T19:02:27.488Z,71.00
2018-05-18T19:04:55.005Z,71.70
2018-05-18T19:07:22.464Z,72.40
2018-05-18T19:09:49.920Z,73.40
2018-05-18T19:12:17.390Z,73.90
2018-05-18T19:14:44.877Z,74.20
2018-05-18T19:17:12.336Z,74.90
2018-05-18T19:19:39.802Z,75.60
2018-05-18T19:22:07.365Z,76.40
2018-05-18T19:24:35.600Z,75.90
2018-05-18T19:27:03.077Z,75.90
2018-05-18T19:29:30.546Z,76.50
2018-05-18T19:31:58.114Z,76.60
2018-05-18T19:34:25.664Z,76.30
2018-05-18T19:36:53.138Z,76.00
2018-05-18T19:39:20.609Z,76.70
2018-05-18T19:41:48.865Z,77.50
2018-05-18T19:44:17.165Z,77.40
2018-05-18T19:46:45.446Z,81.00
2018-05-18T19:49:13.672Z,81.30
2018-05-18T19:51:41.153Z,81.30
2018-05-18T19:54:08.641Z,81.90
2018-05-18T19:56:36.893Z,82.80
2018-05-18T19:59:04.454Z,82.80
2018-05-18T20:01:32.005Z,83.10
2018-05-18T20:03:59.570Z,83.50
2018-05-18T20:06:27.086Z,83.30
2018-05-18T20:08:54.537Z,83.30
2018-05-18T20:11:22.001Z,83.30
2018-05-18T20:13:49.506Z,82.90
2018-05-18T20:16:16.969Z,82.90
2018-05-18T20:18:44.445Z,83.30
2018-05-18T20:21:12.697Z,84.20
2018-05-18T20:23:40.252Z,84.20
2018-05-18T20:26:07.818Z,84.20
2018-05-18T20:28:35.276Z,84.40
2018-05-18T20:31:02.741Z,84.40
2018-05-18T20:33:30.210Z,84.50
2018-05-18T20:35:57.753Z,84.80
2018-05-18T20:38:25.313Z,85.20
2018-05-18T20:40:52.873Z,85.50
2018-05-18T20:43:20.432Z,85.40
2018-05-18T20:45:48.710Z,85.40
2018-05-18T20:48:16.265Z,85.50
2018-05-18T20:50:43.742Z,85.50
2018-05-18T20:53:11.204Z,85.40
2018-05-18T20:55:38.673Z,85.40
2018-05-18T20:58:06.909Z,85.20
2018-05-18T21:00:34.486Z,85.20
2018-05-18T21:03:01.953Z,85.50
2018-05-18T21:05:29.414Z,85.60
2018-05-18T21:07:56.881Z,85.70
2018-05-18T21:10:25.137Z,86.10
2018-05-18T21:12:52.694Z,86.00
2018-05-18T21:15:20.258Z,86.20
2018-05-18T21:17:47.817Z,86.00
2018-05-18T21:20:15.346Z,86.00
2018-05-18T21:22:42.833Z,86.00
2018-05-18T21:25:10.370Z,85.80
2018-05-18T21:27:37.837Z,84.90
2018-05-18T21:30:05.321Z,84.70
2018-05-18T21:32:32.870Z,84.50
2018-05-18T21:35:00.340Z,84.50
2018-05-18T21:37:27.809Z,84.60
2018-05-18T21:39:56.067Z,84.90
2018-05-18T21:42:23.580Z,84.90
2018-05-18T21:44:51.033Z,85.60
2018-05-18T21:47:18.597Z,86.30
2018-05-18T21:49:46.058Z,86.70
2018-05-18T21:52:13.616Z,87.00
2018-05-18T21:54:41.064Z,87.10
2018-05-18T21:57:08.581Z,87.20
2018-05-18T21:59:36.133Z,87.40
2018-05-18T22:02:03.633Z,87.50
2018-05-18T22:04:31.093Z,87.60
2018-05-18T22:06:58.567Z,87.70
2018-05-18T22:09:26.057Z,87.90
2018-05-18T22:11:53.587Z,88.50
2018-05-18T22:14:21.105Z,88.60
2018-05-18T22:16:48.570Z,88.90
2018-05-18T22:19:16.800Z,89.10
2018-05-18T22:21:44.274Z,89.10
2018-05-18T22:24:11.841Z,89.10
2018-05-18T22:26:40.081Z,89.30
2018-05-18T22:29:07.614Z,89.30
2018-05-18T22:31:35.045Z,89.60
2018-05-18T22:34:02.597Z,89.40
2018-05-18T22:36:30.153Z,89.60
2018-05-18T22:38:57.709Z,89.80
2018-05-18T22:41:25.286Z,89.70
2018-05-18T22:43:52.752Z,89.50
2018-05-18T22:46:20.209Z,89.30
2018-05-18T22:48:47.676Z,89.50
2018-05-18T22:51:15.922Z,90.00
2018-05-18T22:53:43.487Z,90.00
2018-05-18T22:56:10.960Z,90.10
2018-05-18T22:58:38.508Z,90.10
2018-05-18T23:01:06.066Z,90.10
2018-05-18T23:03:34.308Z,90.60
2018-05-18T23:06:01.769Z,90.30
2018-05-18T23:08:29.237Z,90.30
2018-05-18T23:10:56.705Z,89.60
2018-05-18T23:13:24.175Z,88.40
2018-05-18T23:15:51.632Z,87.50
2018-05-18T23:18:19.096Z,86.60
2018-05-18T23:20:46.644Z,86.70
2018-05-18T23:23:14.210Z,85.10
2018-05-18T23:25:41.814Z,86.60
2018-05-18T23:28:09.233Z,86.30
2018-05-18T23:30:36.688Z,86.00
2018-05-18T23:33:04.248Z,84.80
2018-05-18T23:35:31.720Z,88.30
2018-05-18T23:37:59.196Z,88.20
2018-05-18T23:40:27.421Z,91.00
2018-05-18T23:42:54.897Z,87.90
2018-05-18T23:45:22.365Z,85.90
2018-05-18T23:47:49.921Z,86.10
2018-05-18T23:50:17.389Z,86.30
2018-05-18T23:52:44.862Z,86.60
2018-05-18T23:55:13.092Z,87.80
2018-05-18T23:57:40.559Z,87.20
